createdAt,value
2023-08-19T00:01:56.059Z,18.20
2023-08-19T00:04:23.187Z,16.55
2023-08-19T00:06:50.212Z,17.45
2023-08-19T00:09:17.077Z,16.75
2023-08-19T00:11:44.056Z,20.00
2023-08-19T00:14:11.037Z,18.67
2023-08-19T00:16:37.932Z,17.88
2023-08-19T00:19:05.270Z,18.38
2023-08-19T00:21:32.090Z,16.45
2023-08-19T00:23:59.024Z,17.83
2023-08-19T00:26:29.183Z,19.35
2023-08-19T00:28:56.123Z,18.73
2023-08-19T00:31:24.363Z,16.42
2023-08-19T00:33:51.323Z,20.58
2023-08-19T00:36:18.429Z,18.17
2023-08-19T00:38:46.870Z,19.58
2023-08-19T00:41:14.237Z,20.17
2023-08-19T00:43:41.275Z,18.02
2023-08-19T00:46:09.579Z,19.55
2023-08-19T00:48:37.313Z,19.30
2023-08-19T00:51:06.675Z,21.23
2023-08-19T00:53:35.366Z,18.15
2023-08-19T00:56:03.203Z,21.08
2023-08-19T00:58:30.027Z,18.58
2023-08-19T01:00:59.045Z,17.93
2023-08-19T01:03:26.477Z,18.00
2023-08-19T01:06:26.798Z,18.67
2023-08-19T01:09:18.716Z,22.20
2023-08-19T01:11:52.688Z,22.20
2023-08-19T01:14:37.850Z,24.00
2023-08-19T01:17:06.546Z,24.05
2023-08-19T01:19:33.818Z,22.83
2023-08-19T01:22:06.275Z,22.58
2023-08-19T01:24:37.070Z,22.08
2023-08-19T01:27:05.610Z,22.03
2023-08-19T01:29:32.557Z,26.48
2023-08-19T01:31:59.638Z,22.30
2023-08-19T01:34:27.109Z,23.70
2023-08-19T01:37:02.447Z,23.20
2023-08-19T01:39:30.174Z,25.33
2023-08-19T01:41:57.363Z,23.05
2023-08-19T01:44:25.067Z,25.08
2023-08-19T01:46:52.574Z,24.45
2023-08-19T01:49:20.471Z,24.60
2023-08-19T01:51:50.733Z,24.47
2023-08-19T01:54:17.536Z,25.50
2023-08-19T01:56:44.449Z,22.65
2023-08-19T01:59:11.373Z,25.15
2023-08-19T02:01:38.355Z,25.27
2023-08-19T02:04:05.525Z,23.03
2023-08-19T02:06:32.473Z,24.35
2023-08-19T02:08:59.312Z,25.05
2023-08-19T02:11:26.314Z,26.15
2023-08-19T02:13:53.256Z,23.85
2023-08-19T02:16:20.156Z,24.07
2023-08-19T02:18:47.175Z,25.27
2023-08-19T02:21:16.085Z,27.58
2023-08-19T02:23:43.246Z,25.67
2023-08-19T02:26:12.337Z,24.95
2023-08-19T02:28:39.501Z,28.40
2023-08-19T02:31:06.593Z,25.50
2023-08-19T02:33:33.522Z,28.15
2023-08-19T02:36:00.514Z,26.25
2023-08-19T02:38:27.473Z,26.35
2023-08-19T02:40:54.569Z,24.43
2023-08-19T02:43:21.554Z,24.55
2023-08-19T02:45:48.967Z,24.90
2023-08-19T02:48:16.566Z,27.15
2023-08-19T02:50:43.872Z,24.70
2023-08-19T02:53:10.699Z,24.90
2023-08-19T02:55:44.044Z,26.52
2023-08-19T02:58:14.588Z,29.38
2023-08-19T03:00:41.731Z,25.08
2023-08-19T03:03:08.817Z,24.15
2023-08-19T03:05:38.817Z,25.13
2023-08-19T03:08:07.035Z,25.67
2023-08-19T03:10:41.602Z,26.83
2023-08-19T03:13:09.429Z,24.17
2023-08-19T03:15:38.764Z,25.27
2023-08-19T03:18:06.600Z,24.07
2023-08-19T03:20:34.291Z,26.80
2023-08-19T03:23:01.451Z,23.02
2023-08-19T03:25:28.429Z,26.73
2023-08-19T03:27:55.416Z,25.67
2023-08-19T03:30:22.319Z,27.90
2023-08-19T03:32:49.196Z,28.65
2023-08-19T03:35:16.594Z,25.00
2023-08-19T03:37:44.520Z,25.98
2023-08-19T03:40:11.808Z,25.75
2023-08-19T03:42:38.814Z,24.40
2023-08-19T03:45:06.413Z,29.95
2023-08-19T03:47:33.587Z,28.52
2023-08-19T03:50:00.598Z,26.80
2023-08-19T03:52:28.428Z,25.20
2023-08-19T03:54:55.396Z,27.20
2023-08-19T03:57:22.222Z,25.27
2023-08-19T03:59:52.284Z,22.08
2023-08-19T04:02:19.616Z,25.15
2023-08-19T04:04:57.940Z,27.15
2023-08-19T04:07:24.825Z,23.33
2023-08-19T04:09:51.922Z,25.20
2023-08-19T04:12:18.689Z,25.98
2023-08-19T04:14:45.506Z,26.35
2023-08-19T04:17:12.679Z,26.17
2023-08-19T04:19:39.556Z,26.17
2023-08-19T04:22:06.542Z,26.33
2023-08-19T04:24:37.897Z,25.90
2023-08-19T04:27:05.088Z,27.52
2023-08-19T04:29:34.032Z,27.15
2023-08-19T04:32:02.398Z,24.20
2023-08-19T04:34:30.469Z,24.52
2023-08-19T04:36:59.798Z,23.75
2023-08-19T04:39:27.752Z,25.02
2023-08-19T04:42:00.813Z,23.35
2023-08-19T04:44:28.062Z,23.67
2023-08-19T04:46:55.140Z,24.80
2023-08-19T04:49:22.295Z,21.90
2023-08-19T04:51:49.497Z,24.25
2023-08-19T04:54:16.432Z,22.50
2023-08-19T04:56:43.403Z,25.90
2023-08-19T04:59:10.315Z,22.30
2023-08-19T05:01:37.249Z,22.45
2023-08-19T05:04:04.360Z,23.70
2023-08-19T05:06:31.411Z,26.25
2023-08-19T05:08:59.066Z,26.03
2023-08-19T05:11:26.151Z,24.15
2023-08-19T05:13:56.737Z,27.58
2023-08-19T05:16:23.643Z,25.75
2023-08-19T05:19:04.184Z,23.73
2023-08-19T05:21:31.191Z,25.23
2023-08-19T05:23:58.617Z,24.75
2023-08-19T05:26:25.705Z,24.80
2023-08-19T05:28:52.684Z,23.90
2023-08-19T05:31:19.666Z,24.73
2023-08-19T05:33:46.539Z,23.60
2023-08-19T05:36:13.389Z,23.50
2023-08-19T05:38:40.259Z,23.88
2023-08-19T05:41:07.214Z,23.02
2023-08-19T05:43:34.145Z,23.83
2023-08-19T05:46:04.900Z,22.97
2023-08-19T05:48:32.331Z,20.92
2023-08-19T05:50:59.694Z,24.17
2023-08-19T05:53:27.331Z,22.63
2023-08-19T05:55:54.199Z,22.27
2023-08-19T05:58:21.333Z,22.43
2023-08-19T06:00:48.312Z,25.80
2023-08-19T06:03:15.375Z,21.00
2023-08-19T06:05:42.608Z,22.40
2023-08-19T06:08:09.530Z,23.17
2023-08-19T06:10:36.916Z,21.63
2023-08-19T06:13:04.177Z,20.70
2023-08-19T06:15:31.146Z,21.15
2023-08-19T06:17:58.092Z,20.45
2023-08-19T06:20:25.288Z,20.35
2023-08-19T06:22:52.259Z,23.83
2023-08-19T06:25:19.127Z,19.98
2023-08-19T06:27:46.072Z,20.73
2023-08-19T06:30:13.899Z,25.65
2023-08-19T06:32:41.038Z,20.98
2023-08-19T06:35:08.556Z,18.60
2023-08-19T06:37:41.079Z,21.60
2023-08-19T06:40:12.201Z,20.02
2023-08-19T06:42:40.394Z,23.95
2023-08-19T06:45:08.394Z,24.30
2023-08-19T06:47:38.305Z,20.47
2023-08-19T06:50:05.923Z,20.40
2023-08-19T06:52:33.025Z,20.55
2023-08-19T06:55:00.065Z,20.02
2023-08-19T06:57:35.184Z,18.38
2023-08-19T07:00:10.811Z,21.77
2023-08-19T07:02:39.032Z,18.55
2023-08-19T07:05:13.805Z,18.60
2023-08-19T07:07:48.607Z,18.73
2023-08-19T07:10:17.347Z,19.02
2023-08-19T07:12:45.513Z,18.87
2023-08-19T07:15:13.476Z,18.65
2023-08-19T07:17:45.305Z,19.40
2023-08-19T07:20:16.382Z,19.00
2023-08-19T07:22:45.439Z,17.60
2023-08-19T07:25:13.211Z,17.67
2023-08-19T07:27:40.359Z,17.75
2023-08-19T07:30:08.248Z,16.50
2023-08-19T07:32:36.787Z,16.52
2023-08-19T07:35:05.325Z,15.70
2023-08-19T07:37:33.082Z,15.63
2023-08-19T07:40:00.485Z,14.23
2023-08-19T07:42:30.818Z,17.42
2023-08-19T07:44:57.662Z,17.40
2023-08-19T07:47:24.543Z,13.57
2023-08-19T07:49:51.481Z,14.17
2023-08-19T07:52:18.426Z,16.10
2023-08-19T07:54:47.263Z,14.57
2023-08-19T07:57:15.130Z,13.77
2023-08-19T07:59:42.003Z,13.60
2023-08-19T08:02:09.027Z,16.03
2023-08-19T08:04:35.850Z,13.18
2023-08-19T08:07:02.801Z,12.25
2023-08-19T08:09:29.611Z,15.35
2023-08-19T08:11:56.545Z,16.00
2023-08-19T08:14:23.453Z,15.03
2023-08-19T08:16:50.480Z,14.52
2023-08-19T08:19:17.269Z,15.63
2023-08-19T08:21:44.049Z,13.15
2023-08-19T08:24:11.025Z,14.70
2023-08-19T08:26:37.879Z,14.77
2023-08-19T08:29:04.912Z,20.80
2023-08-19T08:31:31.831Z,16.88
2023-08-19T08:33:58.755Z,16.52
2023-08-19T08:36:25.803Z,17.00
2023-08-19T08:38:52.745Z,17.00
2023-08-19T08:41:19.829Z,16.90
2023-08-19T08:43:49.654Z,17.27
2023-08-19T08:46:21.232Z,15.95
2023-08-19T08:48:48.393Z,19.02
2023-08-19T08:51:17.053Z,16.63
2023-08-19T08:53:43.902Z,16.45
2023-08-19T08:56:11.579Z,18.38
2023-08-19T08:58:38.587Z,15.80
2023-08-19T09:01:07.140Z,17.27
2023-08-19T09:03:35.049Z,18.00
2023-08-19T09:06:12.074Z,16.45
2023-08-19T09:08:48.330Z,16.83
2023-08-19T09:11:22.337Z,18.98
2023-08-19T09:13:54.905Z,17.85
2023-08-19T09:16:22.382Z,15.17
2023-08-19T09:18:49.397Z,17.80
2023-08-19T09:21:17.057Z,17.90
2023-08-19T09:23:44.168Z,17.35
2023-08-19T09:26:11.814Z,16.27
2023-08-19T09:28:39.451Z,18.53
2023-08-19T09:31:22.847Z,17.05
2023-08-19T09:33:50.106Z,15.55
2023-08-19T09:36:17.389Z,17.83
2023-08-19T09:38:44.358Z,14.50
2023-08-19T09:41:13.855Z,17.40
2023-08-19T09:43:41.560Z,13.20
2023-08-19T09:46:09.327Z,14.00
2023-08-19T09:48:36.583Z,14.38
2023-08-19T09:51:04.044Z,14.95
2023-08-19T09:53:33.972Z,15.80
2023-08-19T09:56:00.921Z,11.52
2023-08-19T09:58:27.914Z,10.20
2023-08-19T10:00:55.346Z,10.27
2023-08-19T10:03:22.947Z,10.15
2023-08-19T10:05:54.415Z,11.73
2023-08-19T10:08:26.383Z,10.68
2023-08-19T10:10:53.532Z,9.18
2023-08-19T10:13:23.201Z,8.27
2023-08-19T10:15:52.559Z,9.73
2023-08-19T10:18:23.056Z,8.77
2023-08-19T10:20:56.373Z,6.53
2023-08-19T10:23:25.599Z,7.00
2023-08-19T10:25:53.034Z,7.28
2023-08-19T10:28:30.057Z,6.20
2023-08-19T10:31:11.504Z,6.97
2023-08-19T10:33:44.122Z,6.85
2023-08-19T10:36:15.767Z,5.95
2023-08-19T10:38:57.846Z,6.20
2023-08-19T10:41:32.009Z,6.53
2023-08-19T10:44:12.665Z,7.27
2023-08-19T10:46:46.324Z,7.65
2023-08-19T10:49:14.406Z,7.15
2023-08-19T10:51:48.577Z,8.10
2023-08-19T10:54:31.232Z,6.47
2023-08-19T10:57:19.140Z,6.20
2023-08-19T10:59:47.817Z,5.90
2023-08-19T11:02:15.319Z,6.18
2023-08-19T11:04:42.442Z,6.65
2023-08-19T11:07:10.059Z,8.02
2023-08-19T11:09:37.681Z,7.37
2023-08-19T11:12:04.954Z,8.48
2023-08-19T11:14:32.007Z,8.30
2023-08-19T11:16:59.085Z,7.35
2023-08-19T11:19:26.627Z,7.13
2023-08-19T11:21:53.863Z,10.23
2023-08-19T11:24:21.000Z,7.57
2023-08-19T11:26:49.776Z,8.73
2023-08-19T11:29:17.679Z,8.15
2023-08-19T11:31:44.878Z,7.32
2023-08-19T11:34:13.301Z,9.40
2023-08-19T11:36:43.743Z,9.73
2023-08-19T11:39:12.554Z,8.80
2023-08-19T11:41:40.444Z,8.30
2023-08-19T11:44:08.147Z,10.05
2023-08-19T11:46:36.733Z,9.67
2023-08-19T11:49:10.588Z,10.82
2023-08-19T11:51:38.674Z,11.10
2023-08-19T11:54:09.182Z,10.02
2023-08-19T11:56:50.304Z,10.20
2023-08-19T11:59:18.544Z,11.83
2023-08-19T12:01:48.933Z,11.30
2023-08-19T12:04:16.994Z,8.00
2023-08-19T12:06:48.250Z,10.95
2023-08-19T12:09:19.444Z,8.55
2023-08-19T12:12:02.080Z,7.90
2023-08-19T12:14:28.858Z,7.53
2023-08-19T12:16:55.779Z,7.68
2023-08-19T12:19:22.708Z,6.30
2023-08-19T12:21:49.676Z,7.22
2023-08-19T12:24:16.601Z,5.73
2023-08-19T12:26:43.412Z,4.82
2023-08-19T12:29:10.347Z,5.88
2023-08-19T12:31:37.406Z,3.75
2023-08-19T12:34:04.737Z,6.30
2023-08-19T12:36:31.868Z,5.57
2023-08-19T12:38:58.685Z,4.75
2023-08-19T12:41:25.663Z,7.53
2023-08-19T12:43:52.607Z,5.28
2023-08-19T12:46:21.322Z,3.17
2023-08-19T12:48:48.150Z,4.40
2023-08-19T12:51:15.013Z,3.40
2023-08-19T12:53:42.061Z,6.55
2023-08-19T12:56:08.997Z,5.75
2023-08-19T12:58:35.875Z,4.40
2023-08-19T13:01:05.945Z,6.20
2023-08-19T13:03:33.099Z,5.82
2023-08-19T13:06:00.116Z,7.38
2023-08-19T13:08:26.925Z,8.10
2023-08-19T13:10:53.796Z,5.88
2023-08-19T13:13:21.215Z,10.07
2023-08-19T13:15:48.109Z,10.50
2023-08-19T13:18:16.641Z,11.15
2023-08-19T13:20:43.458Z,7.10
2023-08-19T13:23:10.345Z,7.05
2023-08-19T13:25:38.144Z,8.23
2023-08-19T13:28:05.714Z,8.45
2023-08-19T13:30:32.599Z,10.07
2023-08-19T13:32:59.500Z,10.82
2023-08-19T13:35:26.498Z,9.23
2023-08-19T13:37:53.413Z,8.23
2023-08-19T13:40:20.350Z,7.07
2023-08-19T13:42:47.179Z,8.73
2023-08-19T13:45:14.143Z,7.70
2023-08-19T13:47:41.036Z,8.75
2023-08-19T13:50:08.781Z,6.73
2023-08-19T13:52:37.139Z,8.50
2023-08-19T13:55:04.707Z,7.55
2023-08-19T13:57:31.919Z,7.85
2023-08-19T13:59:59.256Z,8.35
2023-08-19T14:02:26.293Z,8.37
2023-08-19T14:04:53.313Z,6.55
2023-08-19T14:07:20.159Z,12.25
2023-08-19T14:09:47.003Z,7.07
2023-08-19T14:12:13.853Z,8.57
2023-08-19T14:14:42.693Z,7.10
2023-08-19T14:17:11.537Z,9.88
2023-08-19T14:19:38.463Z,9.77
2023-08-19T14:22:05.366Z,9.07
2023-08-19T14:24:32.245Z,8.65
2023-08-19T14:26:59.180Z,7.33
2023-08-19T14:29:26.248Z,9.93
2023-08-19T14:31:53.103Z,7.72
2023-08-19T14:34:19.997Z,9.95
2023-08-19T14:36:46.842Z,7.25
2023-08-19T14:39:13.815Z,9.63
2023-08-19T14:41:40.756Z,11.48
2023-08-19T14:44:07.867Z,10.75
2023-08-19T14:46:35.206Z,8.38
2023-08-19T14:49:02.115Z,10.05
2023-08-19T14:51:29.005Z,11.43
2023-08-19T14:53:55.969Z,9.98
2023-08-19T14:56:22.962Z,8.50
2023-08-19T14:58:49.872Z,12.80
2023-08-19T15:01:18.617Z,12.77
2023-08-19T15:03:46.748Z,11.43
2023-08-19T15:06:13.772Z,12.70
2023-08-19T15:08:40.674Z,11.00
2023-08-19T15:11:07.608Z,10.00
2023-08-19T15:13:34.501Z,10.57
2023-08-19T15:16:01.377Z,13.53
2023-08-19T15:18:28.299Z,12.43
2023-08-19T15:20:55.498Z,9.77
2023-08-19T15:23:22.450Z,12.18
2023-08-19T15:25:49.291Z,12.07
2023-08-19T15:28:16.155Z,10.80
2023-08-19T15:30:42.995Z,10.18
2023-08-19T15:33:09.888Z,8.50
2023-08-19T15:35:36.716Z,11.45
2023-08-19T15:38:04.362Z,12.88
2023-08-19T15:40:31.214Z,8.00
2023-08-19T15:42:58.033Z,7.78
2023-08-19T15:45:24.922Z,11.10
2023-08-19T15:47:52.038Z,11.13
2023-08-19T15:50:19.701Z,11.77
2023-08-19T15:52:46.639Z,11.43
2023-08-19T15:55:13.590Z,9.43
2023-08-19T15:57:40.506Z,10.20
2023-08-19T16:00:09.523Z,9.68
2023-08-19T16:02:36.474Z,10.38
2023-08-19T16:05:04.302Z,10.93
2023-08-19T16:07:40.295Z,7.75
2023-08-19T16:10:08.812Z,7.72
2023-08-19T16:12:36.580Z,10.10
2023-08-19T16:15:04.531Z,9.75
2023-08-19T16:17:31.487Z,7.70
2023-08-19T16:19:59.061Z,9.63
2023-08-19T16:25:11.843Z,8.02
2023-08-19T16:27:39.944Z,7.97
2023-08-19T16:30:08.589Z,7.40
2023-08-19T16:32:37.994Z,6.35
2023-08-19T16:35:09.117Z,11.07
2023-08-19T16:37:36.177Z,7.10
2023-08-19T16:40:03.695Z,5.53
2023-08-19T16:42:30.576Z,5.67
2023-08-19T16:44:57.406Z,7.93
2023-08-19T16:47:24.469Z,5.22
2023-08-19T16:49:51.895Z,7.13
2023-08-19T16:52:20.997Z,7.20
2023-08-19T16:54:47.902Z,7.00
2023-08-19T16:57:14.924Z,5.82
2023-08-19T16:59:41.742Z,7.47
2023-08-19T17:02:08.867Z,6.72
2023-08-19T17:04:35.837Z,5.13
2023-08-19T17:07:03.240Z,6.37
2023-08-19T17:09:30.196Z,8.88
2023-08-19T17:11:57.127Z,6.43
2023-08-19T17:14:23.930Z,7.65
2023-08-19T17:16:51.336Z,5.05
2023-08-19T17:19:18.390Z,5.43
2023-08-19T17:21:45.307Z,7.57
2023-08-19T17:24:12.150Z,7.95
2023-08-19T17:26:40.040Z,5.93
2023-08-19T17:29:10.495Z,4.35
2023-08-19T17:31:39.189Z,8.60
2023-08-19T17:34:06.135Z,4.97
2023-08-19T17:36:33.307Z,6.35
2023-08-19T17:39:00.171Z,5.80
2023-08-19T17:41:27.097Z,6.32
2023-08-19T17:43:53.990Z,7.57
2023-08-19T17:46:20.896Z,5.43
2023-08-19T17:48:47.846Z,4.65
2023-08-19T17:51:14.834Z,3.97
2023-08-19T17:53:41.690Z,6.03
2023-08-19T17:56:10.605Z,4.60
2023-08-19T17:58:38.098Z,5.40
2023-08-19T18:01:09.188Z,4.88
2023-08-19T18:03:36.189Z,4.63
2023-08-19T18:06:05.429Z,4.72
2023-08-19T18:08:32.542Z,5.73
2023-08-19T18:10:59.416Z,5.75
2023-08-19T18:13:26.569Z,5.50
2023-08-19T18:15:53.561Z,6.40
2023-08-19T18:18:20.521Z,7.68
2023-08-19T18:20:47.519Z,5.80
2023-08-19T18:23:14.621Z,4.75
2023-08-19T18:25:41.562Z,4.85
2023-08-19T18:28:09.683Z,3.75
2023-08-19T18:30:39.998Z,6.20
2023-08-19T18:33:08.153Z,3.23
2023-08-19T18:35:35.730Z,7.78
2023-08-19T18:38:06.671Z,6.88
2023-08-19T18:40:35.795Z,8.30
2023-08-19T18:43:04.465Z,4.28
2023-08-19T18:45:32.733Z,5.20
2023-08-19T18:48:06.055Z,5.55
2023-08-19T18:50:34.850Z,7.72
2023-08-19T18:53:02.912Z,7.50
2023-08-19T18:55:31.986Z,7.35
2023-08-19T18:57:59.877Z,5.70
2023-08-19T19:00:38.782Z,8.68
2023-08-19T19:03:09.390Z,7.22
2023-08-19T19:05:42.877Z,8.95
2023-08-19T19:08:12.204Z,4.88
2023-08-19T19:10:40.487Z,6.30
2023-08-19T19:13:08.158Z,6.93
2023-08-19T19:15:35.710Z,6.63
2023-08-19T19:18:03.714Z,5.68
2023-08-19T19:20:31.921Z,7.38
2023-08-19T19:23:00.062Z,5.57
2023-08-19T19:25:28.397Z,5.57
2023-08-19T19:31:33.576Z,4.68
2023-08-19T19:34:01.325Z,6.15
2023-08-19T19:36:29.476Z,8.10
2023-08-19T19:38:56.854Z,4.82
2023-08-19T19:41:30.605Z,5.97
2023-08-19T19:43:58.340Z,6.68
2023-08-19T19:46:25.991Z,6.45
2023-08-19T19:48:55.413Z,5.87
2023-08-19T19:51:24.459Z,6.05
2023-08-19T19:54:35.638Z,6.50
2023-08-19T19:57:04.487Z,7.95
2023-08-19T19:59:32.506Z,4.32
2023-08-19T20:02:00.685Z,7.27
2023-08-19T20:04:49.336Z,9.15
2023-08-19T20:10:47.836Z,9.65
2023-08-19T20:13:20.897Z,6.38
2023-08-19T20:15:48.704Z,8.03
2023-08-19T20:18:16.754Z,6.22
2023-08-19T20:21:14.936Z,5.60
2023-08-19T20:23:49.664Z,6.85
2023-08-19T20:26:40.400Z,6.28
2023-08-19T20:29:32.814Z,5.43
2023-08-19T20:32:00.763Z,8.90
2023-08-19T20:34:27.664Z,6.97
2023-08-19T20:36:54.794Z,7.38
2023-08-19T20:39:22.085Z,8.50
2023-08-19T20:41:48.984Z,8.40
2023-08-19T20:44:16.412Z,6.72
2023-08-19T20:46:43.744Z,5.55
2023-08-19T20:49:12.728Z,6.82
2023-08-19T20:51:40.114Z,7.15
2023-08-19T20:54:07.882Z,10.87
2023-08-19T20:56:34.894Z,9.90
2023-08-19T20:59:02.108Z,7.47
2023-08-19T21:01:30.840Z,8.65
2023-08-19T21:03:58.213Z,7.60
2023-08-19T21:06:25.253Z,8.17
2023-08-19T21:08:52.217Z,8.13
2023-08-19T21:11:19.236Z,10.25
2023-08-19T21:13:46.020Z,5.07
2023-08-19T21:16:13.020Z,6.60
2023-08-19T21:18:40.107Z,8.10
2023-08-19T21:21:07.098Z,7.35
2023-08-19T21:23:36.327Z,7.03
2023-08-19T21:26:03.648Z,7.38
2023-08-19T21:28:34.893Z,5.45
2023-08-19T21:31:02.212Z,7.23
2023-08-19T21:33:29.246Z,6.65
2023-08-19T21:35:56.505Z,6.47
2023-08-19T21:38:23.702Z,6.50
2023-08-19T21:40:57.158Z,6.85
2023-08-19T21:43:24.832Z,10.33
2023-08-19T21:45:57.742Z,9.93
2023-08-19T21:48:25.218Z,10.68
2023-08-19T21:50:52.490Z,11.68
2023-08-19T21:53:20.316Z,7.28
2023-08-19T21:55:47.332Z,11.23
2023-08-19T21:58:14.508Z,8.38
2023-08-19T22:00:41.418Z,8.82
2023-08-19T22:03:09.334Z,9.27
2023-08-19T22:05:49.873Z,6.70
2023-08-19T22:08:17.844Z,7.53
2023-08-19T22:10:45.443Z,5.82
2023-08-19T22:13:13.180Z,9.00
2023-08-19T22:15:41.882Z,5.32
2023-08-19T22:18:09.617Z,6.55
2023-08-19T22:23:06.522Z,7.00
2023-08-19T22:25:33.762Z,6.68
2023-08-19T22:28:00.648Z,8.90
2023-08-19T22:30:27.556Z,7.60
2023-08-19T22:32:54.574Z,5.63
2023-08-19T22:35:21.724Z,5.25
2023-08-19T22:37:48.570Z,6.20
2023-08-19T22:40:15.678Z,8.90
2023-08-19T22:42:42.549Z,10.43
2023-08-19T22:45:09.889Z,9.97
2023-08-19T22:47:37.473Z,7.57
2023-08-19T22:50:05.301Z,6.35
2023-08-19T22:52:32.308Z,8.52
2023-08-19T22:54:59.464Z,8.32
2023-08-19T22:57:26.475Z,5.47
2023-08-19T22:59:55.023Z,8.38
2023-08-19T23:02:22.181Z,8.27
2023-08-19T23:04:49.206Z,6.72
2023-08-19T23:07:16.101Z,8.98
2023-08-19T23:09:42.985Z,8.07
2023-08-19T23:12:10.253Z,5.90
2023-08-19T23:14:37.414Z,6.47
2023-08-19T23:17:04.574Z,7.70
2023-08-19T23:19:32.549Z,8.15
2023-08-19T23:21:59.783Z,7.83
2023-08-19T23:24:26.826Z,8.70
2023-08-19T23:26:53.726Z,8.25
2023-08-19T23:29:20.521Z,6.90
2023-08-19T23:31:47.400Z,7.65
2023-08-19T23:34:14.251Z,8.77
2023-08-19T23:36:41.178Z,13.02
2023-08-19T23:39:08.699Z,6.50
2023-08-19T23:41:36.389Z,6.28
2023-08-19T23:44:03.838Z,6.65
2023-08-19T23:46:30.725Z,6.93
2023-08-19T23:48:58.056Z,7.90
2023-08-19T23:51:26.737Z,8.20
2023-08-19T23:53:57.209Z,6.35
2023-08-19T23:56:24.419Z,9.57
2023-08-19T23:58:51.778Z,5.60
